sensor_id;sensor_type;location;lat;lon;timestamp;pressure;altitude;pressure_sealevel;temperature;humidity
11856;BME280;5987;53.140;8.904;2022-07-05T00:00:14;102004.91;;;12.81;77.90
11856;BME280;5987;53.140;8.904;2022-07-05T00:03:19;102001.44;;;12.79;78.28
11856;BME280;5987;53.140;8.904;2022-07-05T00:06:23;102011.28;;;12.72;78.10
11856;BME280;5987;53.140;8.904;2022-07-05T00:09:27;102000.84;;;12.69;78.45
11856;BME280;5987;53.140;8.904;2022-07-05T00:12:32;102002.63;;;12.67;78.62
11856;BME280;5987;53.140;8.904;2022-07-05T00:15:36;101999.09;;;12.68;78.76
11856;BME280;5987;53.140;8.904;2022-07-05T00:18:41;101993.81;;;12.68;78.88
11856;BME280;5987;53.140;8.904;2022-07-05T00:21:45;102001.78;;;12.66;78.88
11856;BME280;5987;53.140;8.904;2022-07-05T00:24:49;101999.28;;;12.62;78.69
11856;BME280;5987;53.140;8.904;2022-07-05T00:27:53;101999.38;;;12.59;78.80
11856;BME280;5987;53.140;8.904;2022-07-05T00:30:57;102003.72;;;12.60;78.62
11856;BME280;5987;53.140;8.904;2022-07-05T00:34:02;101996.88;;;12.52;78.85
11856;BME280;5987;53.140;8.904;2022-07-05T00:37:06;101998.75;;;12.49;78.73
11856;BME280;5987;53.140;8.904;2022-07-05T00:40:10;101999.69;;;12.46;78.78
11856;BME280;5987;53.140;8.904;2022-07-05T00:43:14;102003.13;;;12.48;78.85
11856;BME280;5987;53.140;8.904;2022-07-05T00:46:18;101999.72;;;12.45;78.94
11856;BME280;5987;53.140;8.904;2022-07-05T00:49:23;102004.09;;;12.44;79.17
11856;BME280;5987;53.140;8.904;2022-07-05T00:52:27;102005.00;;;12.45;79.36
11856;BME280;5987;53.140;8.904;2022-07-05T00:55:31;102006.75;;;12.44;79.31
11856;BME280;5987;53.140;8.904;2022-07-05T00:58:35;102005.03;;;12.43;79.39
11856;BME280;5987;53.140;8.904;2022-07-05T01:01:39;101993.66;;;12.41;79.48
11856;BME280;5987;53.140;8.904;2022-07-05T01:04:44;102001.63;;;12.38;79.25
11856;BME280;5987;53.140;8.904;2022-07-05T01:07:48;102002.50;;;12.39;79.42
11856;BME280;5987;53.140;8.904;2022-07-05T01:10:53;102000.00;;;12.34;79.43
11856;BME280;5987;53.140;8.904;2022-07-05T01:13:59;101992.16;;;12.31;79.63
11856;BME280;5987;53.140;8.904;2022-07-05T01:17:04;101996.59;;;12.29;79.74
11856;BME280;5987;53.140;8.904;2022-07-05T01:20:10;101996.56;;;12.30;79.98
11856;BME280;5987;53.140;8.904;2022-07-05T01:23:16;101996.50;;;12.32;80.14
11856;BME280;5987;53.140;8.904;2022-07-05T01:26:20;101997.41;;;12.32;80.02
11856;BME280;5987;53.140;8.904;2022-07-05T01:29:24;101996.50;;;12.33;79.94
11856;BME280;5987;53.140;8.904;2022-07-05T01:32:28;101994.88;;;12.28;79.78
11856;BME280;5987;53.140;8.904;2022-07-05T01:35:33;101996.69;;;12.26;79.91
11856;BME280;5987;53.140;8.904;2022-07-05T01:38:39;101995.88;;;12.24;79.98
11856;BME280;5987;53.140;8.904;2022-07-05T01:41:43;101997.69;;;12.20;79.96
11856;BME280;5987;53.140;8.904;2022-07-05T01:44:46;101995.91;;;12.21;80.11
11856;BME280;5987;53.140;8.904;2022-07-05T01:47:50;101987.22;;;12.18;80.13
11856;BME280;5987;53.140;8.904;2022-07-05T01:51:01;101991.63;;;12.16;80.23
11856;BME280;5987;53.140;8.904;2022-07-05T01:54:08;101996.97;;;12.13;80.44
11856;BME280;5987;53.140;8.904;2022-07-05T01:57:12;101993.44;;;12.14;80.46
11856;BME280;5987;53.140;8.904;2022-07-05T02:00:16;101998.81;;;12.11;80.26
11856;BME280;5987;53.140;8.904;2022-07-05T02:03:20;101995.31;;;12.09;80.29
11856;BME280;5987;53.140;8.904;2022-07-05T02:06:44;101991.97;;;12.04;80.38
11856;BME280;5987;53.140;8.904;2022-07-05T02:09:50;101985.03;;;12.00;80.41
11856;BME280;5987;53.140;8.904;2022-07-05T02:12:53;101984.19;;;11.98;80.22
11856;BME280;5987;53.140;8.904;2022-07-05T02:15:57;101988.59;;;11.97;80.56
11856;BME280;5987;53.140;8.904;2022-07-05T02:19:01;101987.84;;;11.91;80.47
11856;BME280;5987;53.140;8.904;2022-07-05T02:22:05;101987.03;;;11.89;80.27
11856;BME280;5987;53.140;8.904;2022-07-05T02:25:11;101987.97;;;11.86;80.38
11856;BME280;5987;53.140;8.904;2022-07-05T02:28:15;101990.63;;;11.84;80.33
11856;BME280;5987;53.140;8.904;2022-07-05T02:31:19;101996.91;;;11.79;80.37
11856;BME280;5987;53.140;8.904;2022-07-05T02:34:23;101994.41;;;11.73;80.63
11856;BME280;5987;53.140;8.904;2022-07-05T02:37:27;101993.63;;;11.69;80.75
11856;BME280;5987;53.140;8.904;2022-07-05T02:40:33;101996.25;;;11.69;80.88
11856;BME280;5987;53.140;8.904;2022-07-05T02:43:38;102002.50;;;11.63;80.86
11856;BME280;5987;53.140;8.904;2022-07-05T02:46:42;102002.50;;;11.63;81.13
11856;BME280;5987;53.140;8.904;2022-07-05T02:49:46;102004.25;;;11.64;81.18
11856;BME280;5987;53.140;8.904;2022-07-05T02:52:49;102008.69;;;11.61;81.39
11856;BME280;5987;53.140;8.904;2022-07-05T02:55:55;102003.50;;;11.58;81.37
11856;BME280;5987;53.140;8.904;2022-07-05T02:58:59;102012.31;;;11.57;81.45
11856;BME280;5987;53.140;8.904;2022-07-05T03:02:03;102003.63;;;11.52;81.54
11856;BME280;5987;53.140;8.904;2022-07-05T03:05:07;102011.59;;;11.48;81.38
11856;BME280;5987;53.140;8.904;2022-07-05T03:08:11;102016.97;;;11.44;81.48
11856;BME280;5987;53.140;8.904;2022-07-05T03:11:16;102016.97;;;11.44;81.83
11856;BME280;5987;53.140;8.904;2022-07-05T03:14:20;102017.81;;;11.44;82.02
11856;BME280;5987;53.140;8.904;2022-07-05T03:17:24;102019.50;;;11.48;82.29
11856;BME280;5987;53.140;8.904;2022-07-05T03:20:29;102016.81;;;11.50;82.53
11856;BME280;5987;53.140;8.904;2022-07-05T03:23:32;102015.06;;;11.50;82.31
11856;BME280;5987;53.140;8.904;2022-07-05T03:26:37;102015.84;;;11.54;82.66
11856;BME280;5987;53.140;8.904;2022-07-05T03:29:42;102014.03;;;11.58;82.81
11856;BME280;5987;53.140;8.904;2022-07-05T03:32:46;102014.00;;;11.59;82.59
11856;BME280;5987;53.140;8.904;2022-07-05T03:35:49;102015.75;;;11.59;82.52
11856;BME280;5987;53.140;8.904;2022-07-05T03:38:53;102015.75;;;11.59;82.44
11856;BME280;5987;53.140;8.904;2022-07-05T03:41:58;102015.75;;;11.60;82.37
11856;BME280;5987;53.140;8.904;2022-07-05T03:45:02;102012.25;;;11.58;82.05
11856;BME280;5987;53.140;8.904;2022-07-05T03:48:06;102014.41;;;11.80;82.57
11856;BME280;5987;53.140;8.904;2022-07-05T03:51:30;102012.13;;;12.40;83.17
11856;BME280;5987;53.140;8.904;2022-07-05T03:54:34;102019.34;;;12.99;81.75
11856;BME280;5987;53.140;8.904;2022-07-05T03:57:39;102015.03;;;12.96;79.17
11856;BME280;5987;53.140;8.904;2022-07-05T04:00:43;102023.84;;;13.27;78.15
11856;BME280;5987;53.140;8.904;2022-07-05T04:03:47;102029.88;;;12.99;77.07
11856;BME280;5987;53.140;8.904;2022-07-05T04:06:51;102027.69;;;12.83;75.98
11856;BME280;5987;53.140;8.904;2022-07-05T04:09:54;102029.38;;;12.51;75.73
11856;BME280;5987;53.140;8.904;2022-07-05T04:12:59;102034.03;;;12.42;76.63
11856;BME280;5987;53.140;8.904;2022-07-05T04:16:04;102032.31;;;12.41;77.25
11856;BME280;5987;53.140;8.904;2022-07-05T04:19:08;102033.28;;;12.37;77.96
11856;BME280;5987;53.140;8.904;2022-07-05T04:22:12;102042.84;;;12.41;78.60
11856;BME280;5987;53.140;8.904;2022-07-05T04:25:16;102027.53;;;12.55;78.61
11856;BME280;5987;53.140;8.904;2022-07-05T04:28:21;102036.75;;;13.04;78.49
11856;BME280;5987;53.140;8.904;2022-07-05T04:31:25;102035.06;;;13.35;77.45
11856;BME280;5987;53.140;8.904;2022-07-05T04:34:29;102042.06;;;13.36;76.53
11856;BME280;5987;53.140;8.904;2022-07-05T04:37:32;102038.91;;;13.54;76.03
11856;BME280;5987;53.140;8.904;2022-07-05T04:40:36;102030.41;;;14.01;75.50
11856;BME280;5987;53.140;8.904;2022-07-05T04:43:42;102035.69;;;14.28;73.78
11856;BME280;5987;53.140;8.904;2022-07-05T04:46:46;102034.53;;;14.64;72.97
11856;BME280;5987;53.140;8.904;2022-07-05T04:49:49;102043.25;;;14.92;70.56
11856;BME280;5987;53.140;8.904;2022-07-05T04:52:53;102044.41;;;15.33;69.89
11856;BME280;5987;53.140;8.904;2022-07-05T04:55:57;102045.69;;;15.46;68.80
11856;BME280;5987;53.140;8.904;2022-07-05T04:59:02;102044.50;;;15.77;67.28
11856;BME280;5987;53.140;8.904;2022-07-05T05:02:06;102047.50;;;15.68;65.97
11856;BME280;5987;53.140;8.904;2022-07-05T05:05:10;102052.91;;;15.65;66.50
11856;BME280;5987;53.140;8.904;2022-07-05T05:08:14;102050.53;;;15.82;66.49
11856;BME280;5987;53.140;8.904;2022-07-05T05:11:17;102047.38;;;16.17;66.50
11856;BME280;5987;53.140;8.904;2022-07-05T05:14:22;102051.44;;;16.03;64.79
11856;BME280;5987;53.140;8.904;2022-07-05T05:17:35;102044.97;;;16.10;64.93
11856;BME280;5987;53.140;8.904;2022-07-05T05:20:39;102054.31;;;16.41;64.56
11856;BME280;5987;53.140;8.904;2022-07-05T05:23:43;102052.41;;;16.23;64.44
11856;BME280;5987;53.140;8.904;2022-07-05T05:26:46;102054.19;;;16.44;64.19
11856;BME280;5987;53.140;8.904;2022-07-05T05:29:52;102047.88;;;16.68;63.50
11856;BME280;5987;53.140;8.904;2022-07-05T05:32:56;102052.41;;;16.66;61.31
11856;BME280;5987;53.140;8.904;2022-07-05T05:36:01;102049.63;;;16.69;62.63
11856;BME280;5987;53.140;8.904;2022-07-05T05:39:05;102052.72;;;16.58;61.73
11856;BME280;5987;53.140;8.904;2022-07-05T05:42:09;102050.47;;;16.69;61.07
11856;BME280;5987;53.140;8.904;2022-07-05T05:45:14;102057.16;;;17.19;60.42
11856;BME280;5987;53.140;8.904;2022-07-05T05:48:18;102060.97;;;17.32;59.43
11856;BME280;5987;53.140;8.904;2022-07-05T05:51:22;102062.88;;;17.10;59.70
11856;BME280;5987;53.140;8.904;2022-07-05T05:54:26;102066.56;;;17.26;58.95
11856;BME280;5987;53.140;8.904;2022-07-05T05:57:30;102063.28;;;17.40;58.39
11856;BME280;5987;53.140;8.904;2022-07-05T06:00:35;102059.78;;;17.40;58.44
11856;BME280;5987;53.140;8.904;2022-07-05T06:03:39;102072.69;;;17.28;58.15
11856;BME280;5987;53.140;8.904;2022-07-05T06:06:43;102069.97;;;17.49;57.40
11856;BME280;5987;53.140;8.904;2022-07-05T06:09:46;102062.88;;;17.88;57.41
11856;BME280;5987;53.140;8.904;2022-07-05T06:12:52;102069.44;;;17.79;55.85
11856;BME280;5987;53.140;8.904;2022-07-05T06:15:58;102080.88;;;18.00;55.78
11856;BME280;5987;53.140;8.904;2022-07-05T06:19:02;102078.13;;;18.21;55.68
11856;BME280;5987;53.140;8.904;2022-07-05T06:22:05;102085.75;;;18.28;55.31
11856;BME280;5987;53.140;8.904;2022-07-05T06:25:10;102074.19;;;18.47;54.88
11856;BME280;5987;53.140;8.904;2022-07-05T06:28:24;102083.88;;;18.65;54.58
11856;BME280;5987;53.140;8.904;2022-07-05T06:31:30;102082.69;;;18.71;54.08
11856;BME280;5987;53.140;8.904;2022-07-05T06:34:33;102080.59;;;18.60;53.81
11856;BME280;5987;53.140;8.904;2022-07-05T06:37:44;102091.94;;;18.10;54.92
11856;BME280;5987;53.140;8.904;2022-07-05T06:40:48;102086.38;;;18.68;53.86
11856;BME280;5987;53.140;8.904;2022-07-05T06:43:53;102092.53;;;18.69;53.96
11856;BME280;5987;53.140;8.904;2022-07-05T06:47:17;102093.75;;;18.81;53.02
11856;BME280;5987;53.140;8.904;2022-07-05T06:50:22;102087.41;;;19.01;53.42
11856;BME280;5987;53.140;8.904;2022-07-05T06:53:25;102088.72;;;19.10;53.16
11856;BME280;5987;53.140;8.904;2022-07-05T06:56:29;102084.44;;;19.07;53.76
11856;BME280;5987;53.140;8.904;2022-07-05T06:59:51;102085.28;;;19.08;53.23
11856;BME280;5987;53.140;8.904;2022-07-05T07:03:00;102089.28;;;18.64;53.37
11856;BME280;5987;53.140;8.904;2022-07-05T07:06:24;102087.56;;;18.63;52.92
11856;BME280;5987;53.140;8.904;2022-07-05T07:09:28;102093.09;;;19.11;52.56
11856;BME280;5987;53.140;8.904;2022-07-05T07:12:31;102085.81;;;19.14;52.31
11856;BME280;5987;53.140;8.904;2022-07-05T07:15:35;102092.66;;;19.52;50.98
11856;BME280;5987;53.140;8.904;2022-07-05T07:18:48;102089.41;;;19.80;51.12
11856;BME280;5987;53.140;8.904;2022-07-05T07:22:12;102102.91;;;19.93;50.34
11856;BME280;5987;53.140;8.904;2022-07-05T07:25:16;102083.00;;;19.00;51.03
11856;BME280;5987;53.140;8.904;2022-07-05T07:28:22;102096.13;;;19.20;52.76
11856;BME280;5987;53.140;8.904;2022-07-05T07:31:26;102089.69;;;19.58;52.10
11856;BME280;5987;53.140;8.904;2022-07-05T07:34:32;102087.00;;;19.92;50.59
11856;BME280;5987;53.140;8.904;2022-07-05T07:37:37;102087.41;;;19.84;50.52
11856;BME280;5987;53.140;8.904;2022-07-05T07:40:40;102091.34;;;19.93;50.13
11856;BME280;5987;53.140;8.904;2022-07-05T07:43:44;102099.34;;;19.27;50.34
11856;BME280;5987;53.140;8.904;2022-07-05T07:46:48;102096.28;;;19.01;51.06
11856;BME280;5987;53.140;8.904;2022-07-05T07:49:54;102103.78;;;18.93;50.85
11856;BME280;5987;53.140;8.904;2022-07-05T07:52:57;102097.31;;;19.82;50.05
11856;BME280;5987;53.140;8.904;2022-07-05T07:56:02;102088.94;;;20.20;47.88
11856;BME280;5987;53.140;8.904;2022-07-05T07:59:06;102092.59;;;20.80;46.84
11856;BME280;5987;53.140;8.904;2022-07-05T08:02:10;102088.47;;;20.74;43.80
11856;BME280;5987;53.140;8.904;2022-07-05T08:05:15;102082.94;;;20.77;42.90
11856;BME280;5987;53.140;8.904;2022-07-05T08:08:19;102091.34;;;20.85;43.13
11856;BME280;5987;53.140;8.904;2022-07-05T08:11:23;102106.31;;;20.73;42.72
11856;BME280;5987;53.140;8.904;2022-07-05T08:14:27;102096.50;;;20.58;43.70
11856;BME280;5987;53.140;8.904;2022-07-05T08:17:30;102104.69;;;20.09;44.59
11856;BME280;5987;53.140;8.904;2022-07-05T08:20:36;102095.81;;;20.54;45.57
11856;BME280;5987;53.140;8.904;2022-07-05T08:23:57;102098.59;;;20.53;43.23
11856;BME280;5987;53.140;8.904;2022-07-05T08:27:01;102099.38;;;20.55;42.54
11856;BME280;5987;53.140;8.904;2022-07-05T08:30:06;102092.53;;;21.10;39.97
11856;BME280;5987;53.140;8.904;2022-07-05T08:33:10;102091.69;;;21.67;39.55
11856;BME280;5987;53.140;8.904;2022-07-05T08:36:15;102095.56;;;20.89;38.27
11856;BME280;5987;53.140;8.904;2022-07-05T08:39:19;102086.84;;;20.71;37.39
11856;BME280;5987;53.140;8.904;2022-07-05T08:42:25;102092.63;;;21.08;36.36
11856;BME280;5987;53.140;8.904;2022-07-05T08:45:31;102099.84;;;20.92;38.90
11856;BME280;5987;53.140;8.904;2022-07-05T08:48:37;102098.81;;;21.23;38.51
11856;BME280;5987;53.140;8.904;2022-07-05T08:51:46;102102.03;;;20.55;38.71
11856;BME280;5987;53.140;8.904;2022-07-05T08:54:51;102102.13;;;20.53;41.30
11856;BME280;5987;53.140;8.904;2022-07-05T08:57:55;102102.72;;;21.75;39.16
11856;BME280;5987;53.140;8.904;2022-07-05T09:01:00;102093.06;;;20.72;38.29
11856;BME280;5987;53.140;8.904;2022-07-05T09:04:06;102095.59;;;20.43;39.27
11856;BME280;5987;53.140;8.904;2022-07-05T09:07:16;102092.91;;;20.13;40.25
11856;BME280;5987;53.140;8.904;2022-07-05T09:10:24;102104.88;;;19.56;41.43
11856;BME280;5987;53.140;8.904;2022-07-05T09:13:34;102090.31;;;19.95;41.19
11856;BME280;5987;53.140;8.904;2022-07-05T09:16:39;102098.56;;;20.07;41.24
11856;BME280;5987;53.140;8.904;2022-07-05T09:19:43;102090.56;;;20.07;41.14
11856;BME280;5987;53.140;8.904;2022-07-05T09:22:56;102099.59;;;19.72;41.67
11856;BME280;5987;53.140;8.904;2022-07-05T09:26:02;102105.84;;;19.71;41.12
11856;BME280;5987;53.140;8.904;2022-07-05T09:29:09;102100.69;;;19.68;41.17
11856;BME280;5987;53.140;8.904;2022-07-05T09:32:33;102097.78;;;21.26;39.37
11856;BME280;5987;53.140;8.904;2022-07-05T09:35:37;102102.41;;;20.33;38.99
11856;BME280;5987;53.140;8.904;2022-07-05T09:38:50;102099.63;;;19.88;40.19
11856;BME280;5987;53.140;8.904;2022-07-05T09:42:13;102099.44;;;19.42;40.45
11856;BME280;5987;53.140;8.904;2022-07-05T09:45:37;102102.22;;;19.56;41.37
11856;BME280;5987;53.140;8.904;2022-07-05T09:48:51;102100.16;;;19.45;41.97
11856;BME280;5987;53.140;8.904;2022-07-05T09:51:56;102105.50;;;19.45;41.49
11856;BME280;5987;53.140;8.904;2022-07-05T09:55:07;102105.13;;;19.85;42.29
11856;BME280;5987;53.140;8.904;2022-07-05T09:58:13;102110.88;;;20.55;40.86
11856;BME280;5987;53.140;8.904;2022-07-05T10:01:24;102102.47;;;21.22;38.78
11856;BME280;5987;53.140;8.904;2022-07-05T10:04:28;102104.28;;;21.36;38.64
11856;BME280;5987;53.140;8.904;2022-07-05T10:07:33;102110.91;;;20.86;38.89
11856;BME280;5987;53.140;8.904;2022-07-05T10:10:43;102106.00;;;21.37;38.91
11856;BME280;5987;53.140;8.904;2022-07-05T10:13:52;102110.59;;;20.60;39.65
11856;BME280;5987;53.140;8.904;2022-07-05T10:17:00;102114.53;;;20.38;40.78
11856;BME280;5987;53.140;8.904;2022-07-05T10:20:14;102108.28;;;20.23;41.41
11856;BME280;5987;53.140;8.904;2022-07-05T10:23:21;102112.25;;;20.00;41.70
11856;BME280;5987;53.140;8.904;2022-07-05T10:26:27;102115.53;;;20.05;42.65
11856;BME280;5987;53.140;8.904;2022-07-05T10:29:36;102119.06;;;19.90;43.27
11856;BME280;5987;53.140;8.904;2022-07-05T10:32:41;102113.63;;;20.08;43.30
11856;BME280;5987;53.140;8.904;2022-07-05T10:35:45;102113.94;;;20.49;43.58
11856;BME280;5987;53.140;8.904;2022-07-05T10:38:50;102104.59;;;20.10;43.97
11856;BME280;5987;53.140;8.904;2022-07-05T10:41:57;102118.47;;;20.17;43.34
11856;BME280;5987;53.140;8.904;2022-07-05T10:45:02;102115.81;;;19.67;44.29
11856;BME280;5987;53.140;8.904;2022-07-05T10:48:17;102109.09;;;19.60;44.21
11856;BME280;5987;53.140;8.904;2022-07-05T10:51:24;102103.56;;;20.13;43.67
11856;BME280;5987;53.140;8.904;2022-07-05T10:54:28;102109.50;;;20.18;43.19
11856;BME280;5987;53.140;8.904;2022-07-05T10:57:35;102109.44;;;20.50;43.53
11856;BME280;5987;53.140;8.904;2022-07-05T11:00:38;102105.66;;;20.54;43.23
11856;BME280;5987;53.140;8.904;2022-07-05T11:03:44;102114.22;;;20.75;42.84
11856;BME280;5987;53.140;8.904;2022-07-05T11:06:49;102113.28;;;20.60;43.44
11856;BME280;5987;53.140;8.904;2022-07-05T11:10:00;102112.25;;;20.93;42.50
11856;BME280;5987;53.140;8.904;2022-07-05T11:13:36;102110.66;;;20.44;43.38
11856;BME280;5987;53.140;8.904;2022-07-05T11:16:40;102107.91;;;20.46;43.80
11856;BME280;5987;53.140;8.904;2022-07-05T11:20:09;102099.84;;;20.92;44.78
11856;BME280;5987;53.140;8.904;2022-07-05T11:23:13;102102.63;;;21.05;43.32
11856;BME280;5987;53.140;8.904;2022-07-05T11:26:17;102098.91;;;20.79;42.81
11856;BME280;5987;53.140;8.904;2022-07-05T11:29:44;102099.59;;;21.11;42.47
11856;BME280;5987;53.140;8.904;2022-07-05T11:32:49;102096.78;;;20.84;43.12
11856;BME280;5987;53.140;8.904;2022-07-05T11:35:53;102091.34;;;20.71;41.81
11856;BME280;5987;53.140;8.904;2022-07-05T11:39:15;102090.56;;;20.53;41.38
11856;BME280;5987;53.140;8.904;2022-07-05T11:42:22;102094.13;;;20.53;41.07
11856;BME280;5987;53.140;8.904;2022-07-05T11:45:39;102095.72;;;20.26;41.27
11856;BME280;5987;53.140;8.904;2022-07-05T11:48:48;102085.00;;;20.58;40.97
11856;BME280;5987;53.140;8.904;2022-07-05T11:51:55;102081.13;;;20.47;40.73
11856;BME280;5987;53.140;8.904;2022-07-05T11:55:01;102073.31;;;20.44;42.41
11856;BME280;5987;53.140;8.904;2022-07-05T11:58:09;102074.53;;;20.38;43.37
11856;BME280;5987;53.140;8.904;2022-07-05T12:01:14;102075.31;;;20.71;43.42
11856;BME280;5987;53.140;8.904;2022-07-05T12:04:23;102065.81;;;20.51;43.38
11856;BME280;5987;53.140;8.904;2022-07-05T12:07:28;102070.28;;;20.95;43.31
11856;BME280;5987;53.140;8.904;2022-07-05T12:10:32;102067.41;;;20.84;41.56
11856;BME280;5987;53.140;8.904;2022-07-05T12:14:20;102074.88;;;20.93;42.35
11856;BME280;5987;53.140;8.904;2022-07-05T12:17:26;102076.47;;;20.51;42.71
11856;BME280;5987;53.140;8.904;2022-07-05T12:20:33;102083.78;;;20.47;43.03
11856;BME280;5987;53.140;8.904;2022-07-05T12:23:37;102077.47;;;20.95;42.50
11856;BME280;5987;53.140;8.904;2022-07-05T12:26:41;102071.81;;;20.85;42.00
11856;BME280;5987;53.140;8.904;2022-07-05T12:29:45;102067.16;;;21.61;41.56
11856;BME280;5987;53.140;8.904;2022-07-05T12:33:02;102071.63;;;21.74;40.60
11856;BME280;5987;53.140;8.904;2022-07-05T12:36:11;102064.59;;;21.30;41.24
11856;BME280;5987;53.140;8.904;2022-07-05T12:39:17;102065.88;;;20.80;42.27
11856;BME280;5987;53.140;8.904;2022-07-05T12:42:31;102059.34;;;21.00;41.10
11856;BME280;5987;53.140;8.904;2022-07-05T12:46:00;102065.44;;;21.02;41.22
11856;BME280;5987;53.140;8.904;2022-07-05T12:49:06;102073.25;;;20.76;40.84
11856;BME280;5987;53.140;8.904;2022-07-05T12:52:10;102064.28;;;20.31;41.58
11856;BME280;5987;53.140;8.904;2022-07-05T12:55:14;102057.16;;;20.31;42.29
11856;BME280;5987;53.140;8.904;2022-07-05T12:58:47;102072.34;;;20.15;43.11
11856;BME280;5987;53.140;8.904;2022-07-05T13:01:50;102060.09;;;20.57;43.80
11856;BME280;5987;53.140;8.904;2022-07-05T13:04:56;102063.53;;;20.89;43.50
11856;BME280;5987;53.140;8.904;2022-07-05T13:07:59;102057.91;;;21.37;42.82
11856;BME280;5987;53.140;8.904;2022-07-05T13:11:03;102068.25;;;22.13;42.14
11856;BME280;5987;53.140;8.904;2022-07-05T13:14:07;102060.38;;;21.69;41.66
11856;BME280;5987;53.140;8.904;2022-07-05T13:17:13;102065.63;;;21.13;42.43
11856;BME280;5987;53.140;8.904;2022-07-05T13:20:19;102062.94;;;20.54;43.35
11856;BME280;5987;53.140;8.904;2022-07-05T13:23:25;102062.50;;;20.15;44.57
11856;BME280;5987;53.140;8.904;2022-07-05T13:26:29;102057.03;;;20.94;44.20
11856;BME280;5987;53.140;8.904;2022-07-05T13:29:34;102060.50;;;21.53;44.26
11856;BME280;5987;53.140;8.904;2022-07-05T13:32:38;102068.41;;;21.26;43.31
11856;BME280;5987;53.140;8.904;2022-07-05T13:35:44;102067.66;;;20.65;43.95
11856;BME280;5987;53.140;8.904;2022-07-05T13:38:48;102060.00;;;20.59;44.16
11856;BME280;5987;53.140;8.904;2022-07-05T13:41:54;102069.28;;;20.67;44.44
11856;BME280;5987;53.140;8.904;2022-07-05T13:44:58;102073.44;;;20.57;44.79
11856;BME280;5987;53.140;8.904;2022-07-05T13:48:02;102067.03;;;20.76;44.13
11856;BME280;5987;53.140;8.904;2022-07-05T13:51:07;102059.81;;;20.78;43.36
11856;BME280;5987;53.140;8.904;2022-07-05T13:54:11;102060.19;;;21.15;41.62
11856;BME280;5987;53.140;8.904;2022-07-05T13:57:15;102067.47;;;21.13;41.86
11856;BME280;5987;53.140;8.904;2022-07-05T14:00:19;102068.66;;;20.48;43.98
11856;BME280;5987;53.140;8.904;2022-07-05T14:03:22;102067.78;;;20.17;45.81
11856;BME280;5987;53.140;8.904;2022-07-05T14:06:28;102077.75;;;20.13;46.50
11856;BME280;5987;53.140;8.904;2022-07-05T14:09:32;102071.84;;;19.92;47.39
11856;BME280;5987;53.140;8.904;2022-07-05T14:12:36;102067.88;;;19.99;47.28
11856;BME280;5987;53.140;8.904;2022-07-05T14:15:40;102063.16;;;20.35;47.02
11856;BME280;5987;53.140;8.904;2022-07-05T14:18:44;102065.00;;;20.65;45.95
11856;BME280;5987;53.140;8.904;2022-07-05T14:21:49;102064.09;;;20.50;45.70
11856;BME280;5987;53.140;8.904;2022-07-05T14:24:53;102067.25;;;20.56;45.40
11856;BME280;5987;53.140;8.904;2022-07-05T14:27:56;102067.63;;;20.95;45.26
11856;BME280;5987;53.140;8.904;2022-07-05T14:31:00;102069.13;;;20.70;44.86
11856;BME280;5987;53.140;8.904;2022-07-05T14:34:04;102070.16;;;20.52;45.95
11856;BME280;5987;53.140;8.904;2022-07-05T14:37:09;102066.28;;;20.27;45.69
11856;BME280;5987;53.140;8.904;2022-07-05T14:40:13;102070.28;;;20.20;45.63
11856;BME280;5987;53.140;8.904;2022-07-05T14:43:17;102058.16;;;20.14;45.41
11856;BME280;5987;53.140;8.904;2022-07-05T14:46:21;102063.56;;;20.13;45.31
11856;BME280;5987;53.140;8.904;2022-07-05T14:49:25;102056.78;;;20.37;45.44
11856;BME280;5987;53.140;8.904;2022-07-05T14:52:30;102066.63;;;20.37;45.10
11856;BME280;5987;53.140;8.904;2022-07-05T14:55:34;102082.47;;;20.08;45.68
11856;BME280;5987;53.140;8.904;2022-07-05T14:58:39;102081.44;;;19.63;49.10
11856;BME280;5987;53.140;8.904;2022-07-05T15:01:43;102078.78;;;19.13;52.42
11856;BME280;5987;53.140;8.904;2022-07-05T15:04:47;102092.13;;;18.96;53.77
11856;BME280;5987;53.140;8.904;2022-07-05T15:07:53;102108.47;;;18.71;55.56
11856;BME280;5987;53.140;8.904;2022-07-05T15:10:56;102100.44;;;18.53;56.37
11856;BME280;5987;53.140;8.904;2022-07-05T15:14:00;102106.25;;;18.61;56.94
11856;BME280;5987;53.140;8.904;2022-07-05T15:17:06;102110.25;;;18.70;56.70
11856;BME280;5987;53.140;8.904;2022-07-05T15:20:10;102098.84;;;18.68;56.28
11856;BME280;5987;53.140;8.904;2022-07-05T15:23:16;102103.91;;;18.55;56.33
11856;BME280;5987;53.140;8.904;2022-07-05T15:26:21;102104.03;;;18.52;56.05
11856;BME280;5987;53.140;8.904;2022-07-05T15:29:25;102095.63;;;18.61;55.04
11856;BME280;5987;53.140;8.904;2022-07-05T15:32:30;102103.47;;;18.99;55.23
11856;BME280;5987;53.140;8.904;2022-07-05T15:35:35;102094.53;;;19.00;55.57
11856;BME280;5987;53.140;8.904;2022-07-05T15:38:40;102095.00;;;19.09;54.79
11856;BME280;5987;53.140;8.904;2022-07-05T15:41:43;102092.16;;;18.77;55.28
11856;BME280;5987;53.140;8.904;2022-07-05T15:44:47;102101.56;;;18.66;56.06
11856;BME280;5987;53.140;8.904;2022-07-05T15:48:03;102101.88;;;18.60;56.12
11856;BME280;5987;53.140;8.904;2022-07-05T15:51:07;102099.34;;;18.40;56.57
11856;BME280;5987;53.140;8.904;2022-07-05T15:54:14;102100.06;;;18.43;56.50
11856;BME280;5987;53.140;8.904;2022-07-05T15:57:18;102097.94;;;18.50;56.29
11856;BME280;5987;53.140;8.904;2022-07-05T16:00:22;102107.50;;;18.54;55.89
11856;BME280;5987;53.140;8.904;2022-07-05T16:03:26;102099.97;;;18.45;54.19
11856;BME280;5987;53.140;8.904;2022-07-05T16:06:30;102099.97;;;18.45;53.57
11856;BME280;5987;53.140;8.904;2022-07-05T16:09:35;102097.63;;;18.56;53.38
11856;BME280;5987;53.140;8.904;2022-07-05T16:12:39;102097.44;;;18.61;52.99
11856;BME280;5987;53.140;8.904;2022-07-05T16:15:43;102096.38;;;18.63;53.05
11856;BME280;5987;53.140;8.904;2022-07-05T16:19:04;102099.03;;;18.46;52.77
11856;BME280;5987;53.140;8.904;2022-07-05T16:22:08;102102.88;;;18.58;53.02
11856;BME280;5987;53.140;8.904;2022-07-05T16:25:13;102112.00;;;18.34;52.77